Time;durP1;ratioP1;P1;durP2;ratioP2;P2;SDS_P1;SDS_P2;PMS_P1;PMS_P2;Temp;Humidity;BMP_temperature;BMP_pressure;BME280_temperature;BME280_humidity;BME280_pressure;Samples;Min_cycle;Max_cycle;Signal;HPM_P1;HPM_P2
2021/05/22 00:02:05;;;;;;;1.30;1.20;;;11.70;99.90;;;;;;5096071;28;20223;-71
2021/05/22 00:04:30;;;;;;;2.33;1.57;;;11.70;99.90;;;;;;5095352;27;20216;-70
2021/05/22 00:06:56;;;;;;;3.50;1.60;;;11.60;99.90;;;;;;5096805;28;20637;-71
2021/05/22 00:09:21;;;;;;;3.57;1.90;;;11.60;99.90;;;;;;5097664;28;20181;-71
2021/05/22 00:11:47;;;;;;;3.40;1.40;;;11.60;99.90;;;;;;5096589;28;20236;-71
2021/05/22 00:14:12;;;;;;;3.93;1.73;;;11.50;99.90;;;;;;5096191;28;20188;-71
2021/05/22 00:16:38;;;;;;;1.80;1.50;;;11.50;99.90;;;;;;5095742;27;20275;-71
2021/05/22 00:19:03;;;;;;;2.77;1.70;;;11.50;99.90;;;;;;5097353;28;20310;-71
2021/05/22 00:21:29;;;;;;;3.03;1.73;;;11.40;99.90;;;;;;5095607;28;20207;-71
2021/05/22 00:23:55;;;;;;;2.30;1.50;;;11.40;99.90;;;;;;5097724;28;20203;-71
2021/05/22 00:26:20;;;;;;;3.80;1.50;;;11.40;99.90;;;;;;5104505;27;20216;-71
2021/05/22 00:28:46;;;;;;;2.50;1.50;;;11.30;99.90;;;;;;5096735;28;20196;-71
2021/05/22 00:31:11;;;;;;;3.03;1.60;;;11.30;99.90;;;;;;5095269;28;20204;-71
2021/05/22 00:33:37;;;;;;;3.60;1.70;;;11.40;99.90;;;;;;5095685;28;20169;-71
2021/05/22 00:36:03;;;;;;;4.00;1.80;;;11.40;99.90;;;;;;5094714;28;20405;-71
2021/05/22 00:38:28;;;;;;;3.07;1.77;;;11.40;99.90;;;;;;5095569;27;20199;-71
2021/05/22 00:40:54;;;;;;;2.93;1.57;;;11.40;99.90;;;;;;5097359;28;20522;-71
2021/05/22 00:43:20;;;;;;;3.60;1.77;;;11.30;99.90;;;;;;5095344;28;20172;-71
2021/05/22 00:45:46;;;;;;;2.77;1.70;;;11.30;99.90;;;;;;5095496;28;20434;-71
2021/05/22 00:48:11;;;;;;;4.23;1.73;;;11.30;99.90;;;;;;5095857;28;20169;-71
2021/05/22 00:50:40;;;;;;;3.87;1.80;;;11.30;99.90;;;;;;5097139;28;20561;-71
2021/05/22 00:53:07;;;;;;;3.97;1.77;;;11.30;99.90;;;;;;5095091;28;20199;-71
2021/05/22 00:55:34;;;;;;;3.43;1.53;;;11.30;99.90;;;;;;5095520;28;20442;-71
2021/05/22 00:58:01;;;;;;;2.60;1.67;;;11.40;99.90;;;;;;5095036;28;20759;-71
2021/05/22 01:00:42;;;;;;;3.07;1.77;;;11.40;99.90;;;;;;5095539;28;20407;-71
2021/05/22 01:03:13;;;;;;;2.73;2.17;;;11.30;99.90;;;;;;5095086;27;20517;-71
2021/05/22 01:05:42;;;;;;;3.27;1.67;;;11.30;99.90;;;;;;5095078;28;20527;-71
2021/05/22 01:08:19;;;;;;;4.30;1.67;;;11.30;99.90;;;;;;5095154;28;20411;-71
2021/05/22 01:10:50;;;;;;;3.03;1.67;;;11.30;99.90;;;;;;5094661;28;20789;-71
2021/05/22 01:13:18;;;;;;;2.63;1.40;;;11.30;99.90;;;;;;5096226;28;20888;-71
2021/05/22 01:15:46;;;;;;;3.60;1.57;;;11.30;99.90;;;;;;5094586;28;20790;-71
2021/05/22 01:18:12;;;;;;;1.87;1.70;;;11.30;99.90;;;;;;5095174;28;20508;-71
2021/05/22 01:20:40;;;;;;;2.60;1.47;;;11.30;99.90;;;;;;5094956;28;20413;-71
2021/05/22 01:23:10;;;;;;;3.90;1.80;;;11.30;99.90;;;;;;5095683;28;20454;-71
2021/05/22 01:25:41;;;;;;;3.70;1.57;;;11.30;99.90;;;;;;5102812;27;20856;-71
2021/05/22 01:28:10;;;;;;;3.07;1.80;;;11.30;99.90;;;;;;5114995;27;20394;-71
2021/05/22 01:30:36;;;;;;;5.23;1.63;;;11.30;99.90;;;;;;5108684;28;20470;-71
2021/05/22 01:33:04;;;;;;;5.93;2.00;;;11.30;99.90;;;;;;5095890;28;20812;-71
2021/05/22 01:35:30;;;;;;;3.73;1.97;;;11.20;99.90;;;;;;5105777;27;20434;-69
2021/05/22 01:37:55;;;;;;;4.33;1.43;;;11.20;99.90;;;;;;5104879;28;20528;-71
2021/05/22 01:40:21;;;;;;;2.43;1.50;;;11.20;99.90;;;;;;5094531;28;20406;-72
2021/05/22 01:42:46;;;;;;;1.97;1.53;;;11.20;99.90;;;;;;5094458;28;20208;-71
2021/05/22 01:45:18;;;;;;;2.77;1.90;;;11.20;99.90;;;;;;5094347;28;20188;-71
2021/05/22 01:47:46;;;;;;;3.23;1.57;;;11.20;99.90;;;;;;5093284;28;20176;-71
2021/05/22 01:50:15;;;;;;;3.27;1.70;;;11.20;99.90;;;;;;5093759;28;20450;-71
2021/05/22 01:52:43;;;;;;;5.50;1.80;;;11.10;99.90;;;;;;5095131;28;20417;-71
2021/05/22 01:55:11;;;;;;;3.77;2.13;;;11.10;99.90;;;;;;5094341;28;20426;-71
2021/05/22 01:57:38;;;;;;;2.63;1.40;;;11.10;99.90;;;;;;5093964;28;20402;-71
2021/05/22 02:00:05;;;;;;;3.10;1.77;;;11.10;99.90;;;;;;5102615;28;20402;-69
2021/05/22 02:02:30;;;;;;;4.43;1.97;;;11.20;99.90;;;;;;5106813;28;20410;-71
2021/05/22 02:04:59;;;;;;;5.67;1.60;;;11.20;99.90;;;;;;5094197;27;20932;-71
2021/05/22 02:07:26;;;;;;;1.93;1.60;;;11.20;99.90;;;;;;5094213;28;20161;-71
2021/05/22 02:09:54;;;;;;;3.60;1.50;;;11.20;99.90;;;;;;5094260;28;20410;-71
2021/05/22 02:12:22;;;;;;;3.37;2.10;;;11.20;99.90;;;;;;5093001;28;20435;-71
2021/05/22 02:14:50;;;;;;;2.03;1.80;;;11.20;99.90;;;;;;5094623;28;20466;-71
2021/05/22 02:17:21;;;;;;;3.37;1.87;;;11.20;99.90;;;;;;5093778;28;20498;-71
2021/05/22 02:19:48;;;;;;;2.37;1.57;;;11.20;99.90;;;;;;5094396;28;20439;-71
2021/05/22 02:22:22;;;;;;;1.67;1.40;;;11.10;99.90;;;;;;5093549;28;20498;-71
2021/05/22 02:24:53;;;;;;;5.37;2.03;;;11.10;99.90;;;;;;5094603;28;20522;-71
2021/05/22 02:27:20;;;;;;;3.70;1.43;;;11.10;99.90;;;;;;5093916;27;20423;-71
2021/05/22 02:29:47;;;;;;;3.47;1.80;;;11.00;99.90;;;;;;5092591;28;20917;-71
2021/05/22 02:32:14;;;;;;;2.83;1.80;;;11.00;99.90;;;;;;5094080;28;20441;-71
2021/05/22 02:34:46;;;;;;;2.20;1.67;;;11.00;99.90;;;;;;5095093;28;20442;-71
2021/05/22 02:37:19;;;;;;;4.65;2.20;;;11.00;99.90;;;;;;5092626;27;20910;-71
2021/05/22 02:39:48;;;;;;;1.80;1.43;;;11.00;99.90;;;;;;5093981;28;20565;-71
2021/05/22 02:42:15;;;;;;;4.47;1.43;;;11.00;99.90;;;;;;5094054;28;20403;-71
2021/05/22 02:44:42;;;;;;;2.47;1.20;;;11.00;99.90;;;;;;5094918;28;20436;-71
2021/05/22 02:47:10;;;;;;;1.93;1.47;;;11.00;99.90;;;;;;5094006;28;20760;-71
2021/05/22 02:49:41;;;;;;;4.83;1.47;;;11.00;99.90;;;;;;5093548;28;20403;-71
2021/05/22 02:52:09;;;;;;;3.93;1.83;;;10.90;99.90;;;;;;5093206;28;20959;-71
2021/05/22 02:54:39;;;;;;;4.33;1.50;;;10.90;99.90;;;;;;5093214;28;20419;-71
2021/05/22 02:57:07;;;;;;;2.80;1.60;;;10.90;99.90;;;;;;5094946;28;20442;-71
2021/05/22 02:59:34;;;;;;;3.23;1.60;;;11.00;99.90;;;;;;5093710;28;20438;-71
2021/05/22 03:02:01;;;;;;;2.50;1.30;;;11.00;99.90;;;;;;5095708;28;20506;-71
2021/05/22 03:04:28;;;;;;;6.70;2.13;;;11.00;99.90;;;;;;5098158;27;20541;-71
2021/05/22 03:06:54;;;;;;;1.97;1.20;;;11.00;99.90;;;;;;5098703;28;20415;-71
2021/05/22 03:09:20;;;;;;;5.13;1.50;;;11.00;99.90;;;;;;5098236;28;20472;-71
2021/05/22 03:11:45;;;;;;;2.43;2.00;;;11.10;99.90;;;;;;5095669;28;20246;-71
2021/05/22 03:14:11;;;;;;;4.23;1.70;;;11.00;99.90;;;;;;5093008;28;20177;-71
2021/05/22 03:16:36;;;;;;;6.20;1.90;;;11.00;99.90;;;;;;5094883;28;20180;-71
2021/05/22 03:19:04;;;;;;;4.10;1.93;;;11.10;99.90;;;;;;5093904;28;20502;-71
2021/05/22 03:21:30;;;;;;;3.20;1.80;;;11.10;99.90;;;;;;5093249;28;20222;-71
2021/05/22 03:23:56;;;;;;;5.90;2.17;;;11.10;99.90;;;;;;5093063;28;20407;-71
2021/05/22 03:26:21;;;;;;;1.97;1.40;;;11.10;99.90;;;;;;5093654;27;20868;-71
2021/05/22 03:28:47;;;;;;;3.43;1.43;;;11.00;99.90;;;;;;5094761;28;20200;-70
2021/05/22 03:31:13;;;;;;;2.90;1.80;;;11.10;99.90;;;;;;5093952;28;20291;-71
2021/05/22 03:33:38;;;;;;;5.53;1.93;;;11.00;99.90;;;;;;5094599;28;20165;-71
2021/05/22 03:36:04;;;;;;;2.70;1.80;;;11.00;99.90;;;;;;5096856;28;20454;-71
2021/05/22 03:38:30;;;;;;;2.50;1.70;;;11.00;99.90;;;;;;5097978;28;20202;-71
2021/05/22 03:40:56;;;;;;;2.50;1.90;;;11.00;99.90;;;;;;5096117;27;20903;-72
2021/05/22 03:43:21;;;;;;;3.43;1.83;;;11.00;99.90;;;;;;5096958;28;20173;-71
2021/05/22 03:45:48;;;;;;;2.30;1.67;;;10.90;99.90;;;;;;5096555;28;20200;-71
2021/05/22 03:48:13;;;;;;;4.93;1.80;;;10.90;99.90;;;;;;5098026;28;20180;-71
2021/05/22 03:50:39;;;;;;;1.63;1.50;;;10.90;99.90;;;;;;5096998;28;20454;-71
2021/05/22 03:53:05;;;;;;;1.90;1.33;;;10.90;99.90;;;;;;5096429;28;20189;-71
2021/05/22 03:55:30;;;;;;;5.77;1.70;;;10.90;99.90;;;;;;5096546;28;20197;-71
2021/05/22 03:57:56;;;;;;;3.47;1.60;;;10.90;99.90;;;;;;5096582;28;20695;-71
2021/05/22 04:00:21;;;;;;;3.03;1.73;;;10.90;99.90;;;;;;5097752;28;20180;-71
2021/05/22 04:02:47;;;;;;;2.10;1.60;;;11.00;99.90;;;;;;5101231;27;20238;-72
2021/05/22 04:05:14;;;;;;;2.50;1.67;;;11.00;99.90;;;;;;5102646;28;20219;-71
2021/05/22 04:07:40;;;;;;;2.70;2.00;;;11.00;99.90;;;;;;5095967;28;20226;-71
2021/05/22 04:10:06;;;;;;;3.50;1.80;;;11.10;99.90;;;;;;5097309;28;20522;-71
2021/05/22 04:12:31;;;;;;;2.70;1.60;;;11.00;99.90;;;;;;5096123;28;20510;-71
2021/05/22 04:14:57;;;;;;;2.17;1.80;;;11.00;99.90;;;;;;5096281;28;20468;-71
2021/05/22 04:17:22;;;;;;;4.83;2.17;;;11.10;99.90;;;;;;5096588;28;20165;-71
2021/05/22 04:19:48;;;;;;;5.53;1.90;;;11.10;99.90;;;;;;5096223;28;20697;-71
2021/05/22 04:22:13;;;;;;;4.07;2.27;;;11.10;99.90;;;;;;5097417;28;20180;-71
2021/05/22 04:24:39;;;;;;;7.50;2.07;;;11.10;99.90;;;;;;5095563;28;20204;-71
2021/05/22 04:27:05;;;;;;;6.73;2.23;;;11.10;99.90;;;;;;5095611;27;20176;-72
2021/05/22 04:29:30;;;;;;;3.47;2.80;;;11.10;99.90;;;;;;5095886;28;20189;-71
2021/05/22 04:31:56;;;;;;;2.40;1.97;;;11.10;99.90;;;;;;5097179;28;20649;-71
2021/05/22 04:34:22;;;;;;;4.43;2.47;;;11.10;99.90;;;;;;5095817;28;20587;-71
2021/05/22 04:36:47;;;;;;;3.63;1.70;;;11.10;99.90;;;;;;5095691;28;20218;-71
2021/05/22 04:39:13;;;;;;;3.27;1.90;;;11.10;99.90;;;;;;5095857;28;20411;-71
2021/05/22 04:41:39;;;;;;;2.63;2.30;;;11.10;99.90;;;;;;5096878;28;20179;-71
2021/05/22 04:44:04;;;;;;;5.17;2.20;;;11.20;99.90;;;;;;5095347;27;20594;-71
2021/05/22 04:46:30;;;;;;;3.47;1.63;;;11.20;99.90;;;;;;5095681;28;20208;-71
2021/05/22 04:48:56;;;;;;;2.13;1.93;;;11.20;99.90;;;;;;5095671;28;20411;-71
2021/05/22 04:51:23;;;;;;;3.40;1.60;;;11.20;99.90;;;;;;5095347;28;20197;-71
2021/05/22 04:53:48;;;;;;;3.50;1.70;;;11.20;99.90;;;;;;5105299;28;20187;-69
2021/05/22 04:56:14;;;;;;;5.03;2.00;;;11.20;99.90;;;;;;5106149;27;20517;-71
2021/05/22 04:58:39;;;;;;;4.23;1.80;;;11.20;99.90;;;;;;5095695;28;20170;-71
2021/05/22 05:01:05;;;;;;;2.63;1.90;;;11.20;99.90;;;;;;5094177;28;20169;-71
2021/05/22 05:03:31;;;;;;;3.93;1.90;;;11.20;99.90;;;;;;5096244;28;20173;-71
2021/05/22 05:05:57;;;;;;;4.97;2.40;;;11.20;99.90;;;;;;5095093;27;20192;-72
2021/05/22 05:08:22;;;;;;;4.40;2.20;;;11.20;99.90;;;;;;5095363;28;20245;-71
2021/05/22 05:10:48;;;;;;;5.83;2.10;;;11.20;99.90;;;;;;5101148;28;20188;-71
2021/05/22 05:13:14;;;;;;;3.80;2.07;;;11.20;99.90;;;;;;5115523;28;20190;-72
2021/05/22 05:15:40;;;;;;;5.07;2.03;;;11.20;99.90;;;;;;5115407;28;20212;-71
2021/05/22 05:18:06;;;;;;;3.67;2.00;;;11.20;99.90;;;;;;5120681;28;20406;-69
2021/05/22 05:20:32;;;;;;;3.27;1.83;;;11.20;99.90;;;;;;5125079;27;20453;-69
2021/05/22 05:22:58;;;;;;;4.27;1.80;;;11.20;99.90;;;;;;5095498;28;20810;-71
2021/05/22 05:25:23;;;;;;;4.07;1.87;;;11.20;99.90;;;;;;5095606;28;20434;-71
2021/05/22 05:27:49;;;;;;;4.10;1.87;;;11.20;99.90;;;;;;5094671;28;20201;-71
2021/05/22 05:30:15;;;;;;;4.43;1.90;;;11.20;99.90;;;;;;5094479;27;20661;-71
2021/05/22 05:32:41;;;;;;;4.13;2.33;;;11.20;99.90;;;;;;5113562;28;20288;-71
2021/05/22 05:35:09;;;;;;;4.80;2.10;;;11.20;99.90;;;;;;5114909;28;20444;-71
2021/05/22 05:37:35;;;;;;;4.93;2.50;;;11.20;99.90;;;;;;5114706;28;20187;-72
2021/05/22 05:40:01;;;;;;;6.80;2.13;;;11.30;99.90;;;;;;5114890;28;20891;-72
2021/05/22 05:42:26;;;;;;;6.53;1.83;;;11.30;99.90;;;;;;5113059;28;20160;-72
2021/05/22 05:44:52;;;;;;;3.80;1.97;;;11.40;99.90;;;;;;5114750;27;20671;-72
2021/05/22 05:47:17;;;;;;;4.07;2.00;;;11.50;99.90;;;;;;5114753;28;20274;-72
2021/05/22 05:49:43;;;;;;;4.53;2.17;;;11.50;99.90;;;;;;5115516;28;20207;-72
2021/05/22 05:52:09;;;;;;;7.60;2.40;;;11.50;99.90;;;;;;5113220;28;20265;-72
2021/05/22 05:54:34;;;;;;;6.00;1.93;;;11.50;99.90;;;;;;5114537;28;20675;-71
2021/05/22 05:57:00;;;;;;;2.93;2.37;;;11.50;99.90;;;;;;5114345;27;20418;-72
2021/05/22 05:59:25;;;;;;;9.37;2.40;;;11.50;99.90;;;;;;5114395;28;20248;-71
2021/05/22 06:01:51;;;;;;;3.20;1.80;;;11.70;99.90;;;;;;5112953;28;20254;-71
2021/05/22 06:04:16;;;;;;;4.67;2.37;;;11.70;99.90;;;;;;5114303;28;20199;-71
2021/05/22 06:06:42;;;;;;;4.50;2.17;;;11.80;99.90;;;;;;5115056;28;20232;-71
2021/05/22 06:09:07;;;;;;;2.40;1.63;;;11.80;99.90;;;;;;5113392;27;20195;-72
2021/05/22 06:11:35;;;;;;;5.20;1.90;;;11.90;99.90;;;;;;5119061;27;20274;-71
2021/05/22 06:14:02;;;;;;;4.40;2.37;;;11.80;99.90;;;;;;5124080;27;20247;-71
2021/05/22 06:16:33;;;;;;;12.30;2.60;;;11.90;99.90;;;;;;5134947;27;20507;-71
2021/05/22 06:18:59;;;;;;;3.30;2.23;;;11.90;99.90;;;;;;5120199;27;20403;-71
2021/05/22 06:21:25;;;;;;;3.50;1.93;;;11.80;99.90;;;;;;5114472;27;20472;-71
2021/05/22 06:23:51;;;;;;;4.67;1.90;;;11.80;99.90;;;;;;5115156;28;20425;-71
2021/05/22 06:26:17;;;;;;;4.33;2.27;;;11.90;99.90;;;;;;5120725;27;20544;-73
2021/05/22 06:28:42;;;;;;;3.00;1.80;;;11.90;99.90;;;;;;5137587;27;20171;-71
2021/05/22 06:31:08;;;;;;;2.03;1.80;;;11.90;99.90;;;;;;5135185;27;20448;-72
2021/05/22 06:33:34;;;;;;;5.73;2.53;;;11.80;99.90;;;;;;5108370;27;20180;-71
2021/05/22 06:36:00;;;;;;;2.17;1.43;;;11.70;99.90;;;;;;5094816;28;20196;-72
2021/05/22 06:38:26;;;;;;;3.30;1.93;;;11.70;99.90;;;;;;5096882;28;20425;-71
2021/05/22 06:40:53;;;;;;;2.77;1.60;;;11.70;99.90;;;;;;5093885;28;20984;-71
2021/05/22 06:43:19;;;;;;;5.90;1.70;;;11.70;99.90;;;;;;5099885;28;20422;-72
2021/05/22 06:45:47;;;;;;;4.00;1.75;;;11.70;99.90;;;;;;5113019;28;20486;-72
2021/05/22 06:48:14;;;;;;;5.13;2.57;;;11.70;99.90;;;;;;5107861;27;20197;-72
2021/05/22 06:50:41;;;;;;;4.00;1.77;;;11.60;99.90;;;;;;5102324;28;20458;-73
2021/05/22 06:53:07;;;;;;;4.60;1.63;;;11.70;99.90;;;;;;5095377;28;20498;-72
2021/05/22 06:55:33;;;;;;;2.40;1.47;;;11.70;99.90;;;;;;5103221;28;20509;-72
2021/05/22 06:58:00;;;;;;;4.47;1.97;;;11.60;99.90;;;;;;5099430;27;20445;-72
2021/05/22 07:00:26;;;;;;;1.53;1.30;;;11.60;99.90;;;;;;5110020;28;20426;-72
2021/05/22 07:02:51;;;;;;;3.00;1.30;;;11.70;99.90;;;;;;5133918;27;20440;-72
2021/05/22 07:05:17;;;;;;;2.60;1.53;;;11.70;99.90;;;;;;5115098;28;20521;-72
2021/05/22 07:07:43;;;;;;;4.10;1.83;;;11.70;99.90;;;;;;5132178;27;20187;-72
2021/05/22 07:10:10;;;;;;;2.20;1.40;;;11.60;99.90;;;;;;5134615;27;20437;-72
2021/05/22 07:12:36;;;;;;;3.13;1.60;;;11.60;99.90;;;;;;5119947;28;20180;-71
2021/05/22 07:15:02;;;;;;;2.67;1.53;;;11.60;99.90;;;;;;5107538;28;20453;-72
2021/05/22 07:17:28;;;;;;;3.70;1.60;;;11.70;99.90;;;;;;5119302;27;20163;-72
2021/05/22 07:19:53;;;;;;;3.33;1.73;;;11.70;99.90;;;;;;5123734;27;20422;-72
2021/05/22 07:22:19;;;;;;;2.33;1.77;;;11.70;99.90;;;;;;5123379;28;20275;-72
2021/05/22 07:24:47;;;;;;;5.63;2.20;;;11.80;99.90;;;;;;5119999;28;20726;-71
2021/05/22 07:27:14;;;;;;;6.97;1.50;;;11.70;99.90;;;;;;5116565;28;20184;-72
2021/05/22 07:29:39;;;;;;;1.60;1.23;;;11.60;99.90;;;;;;5116689;27;20453;-72
2021/05/22 07:32:05;;;;;;;2.43;1.60;;;11.70;99.90;;;;;;5115813;28;20933;-72
2021/05/22 07:34:31;;;;;;;1.60;1.30;;;11.70;99.90;;;;;;5108587;28;20569;-71
2021/05/22 07:36:56;;;;;;;2.10;1.90;;;11.70;99.90;;;;;;5104727;28;20548;-72
2021/05/22 07:39:22;;;;;;;4.27;1.90;;;11.60;99.90;;;;;;5109768;27;20222;-71
2021/05/22 07:41:47;;;;;;;1.70;1.60;;;11.60;99.90;;;;;;5102371;28;20181;-72
2021/05/22 07:44:13;;;;;;;3.20;2.03;;;11.60;99.90;;;;;;5103246;28;20180;-71
2021/05/22 07:46:39;;;;;;;2.67;1.75;;;11.60;99.90;;;;;;5101791;28;20445;-72
2021/05/22 07:49:05;;;;;;;6.70;2.13;;;11.50;99.90;;;;;;5113175;27;20184;-73
2021/05/22 07:51:30;;;;;;;3.63;1.57;;;11.60;99.90;;;;;;5112151;28;20964;-72
2021/05/22 07:53:56;;;;;;;2.07;1.60;;;11.60;99.90;;;;;;5109249;28;20303;-72
2021/05/22 07:56:22;;;;;;;5.30;1.83;;;11.60;99.90;;;;;;5112615;28;20237;-72
2021/05/22 07:58:47;;;;;;;2.33;1.77;;;11.60;99.90;;;;;;5115641;28;20184;-72
2021/05/22 08:01:13;;;;;;;2.33;1.60;;;11.70;99.90;;;;;;5112627;27;20923;-73
2021/05/22 08:03:38;;;;;;;3.37;1.60;;;11.60;99.90;;;;;;5105763;27;20200;-73
2021/05/22 08:06:04;;;;;;;3.97;2.00;;;11.60;99.90;;;;;;5093470;28;20701;-73
2021/05/22 08:08:30;;;;;;;2.83;1.30;;;11.70;99.90;;;;;;5096680;28;20195;-73
2021/05/22 08:10:55;;;;;;;6.13;1.80;;;11.70;99.90;;;;;;5095153;28;20204;-73
2021/05/22 08:13:21;;;;;;;4.27;2.47;;;11.70;99.90;;;;;;5131735;27;21687;-71
2021/05/22 08:15:46;;;;;;;2.67;2.47;;;11.70;99.90;;;;;;5129419;27;20566;-70
2021/05/22 08:18:12;;;;;;;4.27;1.70;;;11.70;99.90;;;;;;5099116;28;20196;-71
2021/05/22 08:20:38;;;;;;;2.03;1.50;;;11.70;99.90;;;;;;5108764;28;20184;-72
2021/05/22 08:23:05;;;;;;;3.70;2.13;;;11.80;99.90;;;;;;5101869;28;20263;-72
2021/05/22 08:25:30;;;;;;;2.73;1.73;;;11.90;99.90;;;;;;5102461;27;20456;-71
2021/05/22 08:27:57;;;;;;;9.10;2.50;;;11.90;99.90;;;;;;5108399;28;20441;-72
2021/05/22 08:30:24;;;;;;;3.60;1.70;;;11.90;99.90;;;;;;5101485;27;20205;-72
2021/05/22 08:32:50;;;;;;;3.93;1.90;;;11.90;99.90;;;;;;5107130;27;20569;-71
2021/05/22 08:35:15;;;;;;;3.93;1.97;;;11.60;99.90;;;;;;5111180;27;21277;-72
2021/05/22 08:37:41;;;;;;;2.67;1.30;;;11.60;99.90;;;;;;5100635;28;20427;-71
2021/05/22 08:40:09;;;;;;;4.60;1.80;;;11.60;99.90;;;;;;5099751;27;20177;-72
2021/05/22 08:42:35;;;;;;;3.73;1.53;;;11.60;99.90;;;;;;5099886;28;20415;-72
2021/05/22 08:45:10;;;;;;;3.77;1.60;;;11.60;99.90;;;;;;5110176;28;20434;-73
2021/05/22 08:47:36;;;;;;;5.50;1.40;;;11.60;99.90;;;;;;5101602;27;20535;-72
2021/05/22 08:50:05;;;;;;;2.00;1.43;;;11.70;99.90;;;;;;5093024;28;20869;-72
2021/05/22 08:52:31;;;;;;;3.53;1.70;;;11.60;99.90;;;;;;5094667;28;20434;-73
2021/05/22 08:54:57;;;;;;;2.93;1.53;;;11.70;99.90;;;;;;5108303;27;20554;-72
2021/05/22 08:57:22;;;;;;;2.70;1.60;;;11.60;99.90;;;;;;5104764;27;20208;-72
2021/05/22 08:59:49;;;;;;;4.60;2.23;;;11.60;99.90;;;;;;5105344;27;20180;-72
2021/05/22 09:02:18;;;;;;;5.33;1.73;;;11.60;99.90;;;;;;5116209;28;20822;-72
2021/05/22 09:05:05;;;;;;;2.70;1.80;;;11.60;99.90;;;;;;5118528;27;20441;-72
2021/05/22 09:07:32;;;;;;;1.40;1.23;;;11.50;99.90;;;;;;5101666;27;20504;-72
2021/05/22 09:10:18;;;;;;;3.40;1.40;;;11.60;99.90;;;;;;5102377;28;20505;-73
2021/05/22 09:12:51;;;;;;;2.67;1.47;;;11.60;99.90;;;;;;5093968;28;20419;-73
2021/05/22 09:15:22;;;;;;;1.60;1.50;;;11.60;99.90;;;;;;5095831;28;20964;-72
2021/05/22 09:17:48;;;;;;;4.77;1.77;;;11.60;99.90;;;;;;5114654;27;20580;-72
2021/05/22 09:20:25;;;;;;;2.70;1.57;;;11.70;99.90;;;;;;5117383;27;20504;-72
2021/05/22 09:23:09;;;;;;;2.33;1.70;;;11.70;99.90;;;;;;5112580;28;20167;-72
2021/05/22 09:25:43;;;;;;;2.40;1.30;;;11.80;99.90;;;;;;5114494;28;20509;-72
2021/05/22 09:28:10;;;;;;;3.63;1.33;;;11.80;99.90;;;;;;5095718;27;20480;-73
2021/05/22 09:30:38;;;;;;;4.57;1.70;;;11.80;99.90;;;;;;5092229;28;20520;-73
2021/05/22 09:33:12;;;;;;;4.20;1.60;;;11.70;99.90;;;;;;5121705;28;20414;-73
2021/05/22 09:35:37;;;;;;;4.27;1.73;;;11.70;99.90;;;;;;5120634;28;20422;-72
2021/05/22 09:38:06;;;;;;;2.23;1.53;;;11.80;99.90;;;;;;5107782;27;21081;-73
2021/05/22 09:40:35;;;;;;;2.80;1.23;;;11.90;99.90;;;;;;5108629;28;20207;-73
2021/05/22 09:43:04;;;;;;;2.20;1.73;;;11.90;99.90;;;;;;5104343;28;20468;-73
2021/05/22 09:45:45;;;;;;;2.73;1.50;;;11.80;99.90;;;;;;5109484;28;20560;-73
2021/05/22 09:48:23;;;;;;;2.70;1.80;;;11.90;99.90;;;;;;5094486;28;20422;-72
2021/05/22 09:50:51;;;;;;;2.93;1.63;;;11.80;99.90;;;;;;5108517;28;20468;-73
2021/05/22 09:53:29;;;;;;;1.33;1.20;;;11.80;99.90;;;;;;5101520;27;20508;-71
2021/05/22 09:56:18;;;;;;;4.37;1.53;;;11.80;99.90;;;;;;5112671;28;20964;-72
2021/05/22 09:58:55;;;;;;;5.50;1.40;;;11.90;99.90;;;;;;5113410;28;20722;-73
2021/05/22 10:01:25;;;;;;;2.30;2.00;;;11.90;99.90;;;;;;5106309;27;20454;-73
2021/05/22 10:03:50;;;;;;;3.17;1.97;;;11.80;99.90;;;;;;5095165;28;20427;-72
2021/05/22 10:06:16;;;;;;;4.27;1.40;;;11.80;99.90;;;;;;5092342;28;20533;-72
2021/05/22 10:08:43;;;;;;;2.77;1.40;;;11.70;99.90;;;;;;5091776;28;20177;-72
2021/05/22 10:11:08;;;;;;;4.10;1.53;;;11.60;99.90;;;;;;5093390;28;20776;-72
2021/05/22 10:13:36;;;;;;;6.07;2.43;;;11.60;99.90;;;;;;5092876;28;20414;-73
2021/05/22 10:16:02;;;;;;;4.30;1.77;;;11.60;99.90;;;;;;5094542;28;20192;-72
2021/05/22 10:18:31;;;;;;;3.27;1.47;;;11.70;99.90;;;;;;5120348;27;20904;-73
2021/05/22 10:20:58;;;;;;;4.70;2.13;;;11.70;99.90;;;;;;5133834;27;20511;-73
2021/05/22 10:23:24;;;;;;;4.57;1.33;;;11.70;99.90;;;;;;5097605;27;20446;-72
2021/05/22 10:25:51;;;;;;;1.40;1.30;;;11.70;99.90;;;;;;5105125;28;20445;-73
2021/05/22 10:28:17;;;;;;;2.80;1.63;;;11.70;99.90;;;;;;5114947;28;20410;-73
2021/05/22 10:30:44;;;;;;;3.67;1.50;;;11.70;99.90;;;;;;5113229;28;20787;-73
2021/05/22 10:33:11;;;;;;;2.67;1.50;;;11.70;99.90;;;;;;5113252;28;20517;-73
2021/05/22 10:35:52;;;;;;;4.87;1.93;;;11.80;99.90;;;;;;5111312;28;20825;-73
2021/05/22 10:38:32;;;;;;;2.83;1.50;;;11.80;99.90;;;;;;5092715;28;20467;-71
2021/05/22 10:40:59;;;;;;;5.90;1.67;;;11.80;99.90;;;;;;5092996;28;20433;-71
2021/05/22 10:43:46;;;;;;;3.00;1.83;;;11.80;99.90;;;;;;5092365;28;20451;-71
2021/05/22 10:46:13;;;;;;;3.10;1.70;;;11.60;99.90;;;;;;5093911;28;20419;-72
2021/05/22 10:48:39;;;;;;;3.03;1.60;;;11.70;99.90;;;;;;5092874;28;20406;-72
2021/05/22 10:51:34;;;;;;;4.03;1.80;;;11.80;99.90;;;;;;5092716;27;20787;-73
2021/05/22 10:54:13;;;;;;;3.60;1.37;;;11.80;99.90;;;;;;5092467;28;20145;-72
2021/05/22 10:57:01;;;;;;;4.47;1.53;;;11.80;99.90;;;;;;5092506;28;20418;-72
2021/05/22 10:59:26;;;;;;;4.67;2.20;;;11.90;99.90;;;;;;5090657;28;20426;-72
2021/05/22 11:01:52;;;;;;;9.70;1.87;;;11.90;99.90;;;;;;5092904;28;20998;-71
2021/05/22 11:04:21;;;;;;;3.83;1.70;;;11.80;99.90;;;;;;5092989;28;20188;-73
2021/05/22 11:06:53;;;;;;;3.80;1.60;;;11.90;99.90;;;;;;5094134;28;20259;-71
2021/05/22 11:09:31;;;;;;;5.40;1.83;;;11.90;99.90;;;;;;5110364;28;20418;-73
2021/05/22 11:12:12;;;;;;;5.50;2.30;;;11.90;99.90;;;;;;5113502;28;20449;-71
2021/05/22 11:14:43;;;;;;;2.10;1.30;;;11.90;99.90;;;;;;5111278;27;20986;-71
2021/05/22 11:17:26;;;;;;;2.83;1.57;;;12.00;99.90;;;;;;5111405;28;20455;-71
2021/05/22 11:19:59;;;;;;;3.27;1.50;;;12.10;99.90;;;;;;5108489;28;20445;-71
2021/05/22 11:22:25;;;;;;;3.00;1.30;;;12.00;99.90;;;;;;5111258;28;20445;-71
2021/05/22 11:25:02;;;;;;;3.80;1.80;;;12.00;99.90;;;;;;5105456;27;20948;-71
2021/05/22 11:30:21;;;;;;;3.80;1.90;;;12.20;99.90;;;;;;5092812;28;20955;-72
2021/05/22 11:32:48;;;;;;;4.30;1.63;;;12.10;99.90;;;;;;5092786;28;20520;-71
2021/05/22 11:35:26;;;;;;;4.97;1.70;;;12.10;99.90;;;;;;5093098;28;20440;-71
2021/05/22 11:37:53;;;;;;;8.97;1.83;;;12.20;99.90;;;;;;5092255;28;20429;-73
2021/05/22 11:40:38;;;;;;;3.63;2.03;;;12.20;99.90;;;;;;5093926;27;20948;-73
2021/05/22 11:43:18;;;;;;;1.93;1.40;;;12.20;99.90;;;;;;5092810;28;20468;-72
2021/05/22 11:46:03;;;;;;;4.90;2.17;;;12.20;99.90;;;;;;5092449;28;20452;-72
2021/05/22 11:48:33;;;;;;;8.83;1.80;;;12.20;99.90;;;;;;5093976;28;20503;-72
2021/05/22 11:51:20;;;;;;;5.60;2.03;;;12.20;99.90;;;;;;5097657;27;20553;-72
2021/05/22 11:53:57;;;;;;;3.47;1.70;;;12.20;99.90;;;;;;5092603;28;20755;-72
2021/05/22 11:56:24;;;;;;;4.73;1.67;;;12.30;99.90;;;;;;5112532;27;20500;-72
2021/05/22 11:58:55;;;;;;;3.47;1.73;;;12.20;99.90;;;;;;5107983;28;20441;-71
2021/05/22 12:01:33;;;;;;;4.23;1.87;;;12.30;99.90;;;;;;5099584;28;20774;-73
2021/05/22 12:04:03;;;;;;;9.17;2.40;;;12.30;99.90;;;;;;5100840;28;20445;-72
2021/05/22 12:06:34;;;;;;;5.50;2.07;;;12.30;99.90;;;;;;5100622;28;20519;-72
2021/05/22 12:09:13;;;;;;;3.60;1.40;;;12.30;99.90;;;;;;5096885;28;20399;-71
2021/05/22 12:11:52;;;;;;;4.37;2.10;;;12.30;99.90;;;;;;5100740;27;20467;-72
2021/05/22 12:14:18;;;;;;;4.33;1.80;;;12.40;99.90;;;;;;5101653;28;20426;-73
2021/05/22 12:16:43;;;;;;;3.93;1.90;;;12.40;99.90;;;;;;5109536;28;20453;-73
2021/05/22 12:19:18;;;;;;;5.20;2.17;;;12.40;99.90;;;;;;5099515;28;20184;-72
2021/05/22 12:21:53;;;;;;;3.90;1.70;;;12.40;99.90;;;;;;5105359;27;20195;-72
2021/05/22 12:24:20;;;;;;;5.07;2.10;;;12.40;99.90;;;;;;5103721;28;20430;-72
2021/05/22 12:26:52;;;;;;;2.70;1.70;;;12.40;99.90;;;;;;5100082;28;20433;-72
2021/05/22 12:29:17;;;;;;;2.90;1.70;;;12.50;99.90;;;;;;5104918;28;20438;-74
2021/05/22 12:31:48;;;;;;;4.23;1.73;;;12.50;99.90;;;;;;5107573;27;21032;-73
2021/05/22 12:34:14;;;;;;;1.53;1.30;;;12.50;99.90;;;;;;5098947;28;20173;-73
2021/05/22 12:37:12;;;;;;;8.63;2.07;;;12.50;99.90;;;;;;5110502;28;20423;-72
2021/05/22 12:39:38;;;;;;;4.87;2.10;;;12.50;99.90;;;;;;5101419;28;20656;-72
2021/05/22 12:42:14;;;;;;;7.13;2.33;;;12.60;99.90;;;;;;5106269;27;20438;-72
2021/05/22 12:44:40;;;;;;;3.70;2.20;;;12.60;99.90;;;;;;5105418;28;20451;-72
2021/05/22 12:47:05;;;;;;;4.70;1.90;;;12.50;99.90;;;;;;5107290;28;20431;-73
2021/05/22 12:49:31;;;;;;;4.27;1.90;;;12.50;99.90;;;;;;5099419;28;20433;-72
2021/05/22 12:52:03;;;;;;;3.03;2.40;;;12.50;99.90;;;;;;5107257;27;20253;-72
2021/05/22 12:54:33;;;;;;;4.10;2.30;;;12.60;99.90;;;;;;5102344;28;20192;-73
2021/05/22 12:57:14;;;;;;;4.53;2.20;;;12.60;99.90;;;;;;5114394;28;20447;-72